Block Island, RI

4:31 PM EST on February 27, 2015 (GMT -0500)
Champlins Road - near Coast Guard | Change Station
CLOSE
Current Station
Personal Weather Station
Location: Block Island, RI
Elevation: 50 ft
Nearby Weather Stations

Elev 50 ft 41.19 °N, 71.59 °W | Updated 6 seconds ago

Clear
Clear
27.9 °F
Feels Like 19 °F
N
10.0
Wind Variable Wind from West
Gusts 14.0 mph

Today
High -- | Low -- °F
--% Chance of Precip.
Yesterday
High -- | Low -- °F
Precip. -- in
6:24 AM 5:34 PM
Waxing Gibbous, 71% visible
Pressure 30.36 in
Visibility 10.0 miles
Clouds Clear
Windchill 19 °F
Dew Point 17 °F
Humidity 63%
Rainfall 0.00 in
Snow Depth Not available.
UV 0.0 out of 12
Pollen .40 out of 12
Air Quality Not available.
Flu Activity Not available.
METAR KBID 272115Z AUTO 25010KT 10SM CLR M03/M12 A3036 RMK AO1

More Conditions Fewer Conditions

Pressure 30.36 in
Visibility 10.0 miles
Clouds Clear
Windchill 19 °F
Dew Point 17 °F
Humidity 63%
Rainfall 0.00 in
Snow Depth Not available.
UV 0.0 out of 12
Pollen .40 out of 12
Air Quality Not available.
Flu Activity Not available.
METAR KBID 272115Z AUTO 25010KT 10SM CLR M03/M12 A3036 RMK AO1

More Conditions Fewer Conditions

10-Day Weather Forecast

Almanac

Astronomy

Feb. 27, 2015 Rise Set
Actual Time
Civil Twilight
Nautical Twilight
Astronomical Twilight
Moon
Length of Visible Light
Length of Day
Tomorrow will be .
, % of the Moon is Illuminated

Today's Extremes

State Highs State Lows

Community

WunderPhotos

Upload Photos

1,800,838 photos uploaded!

WunderBlogs® & News

Nearby

Air Quality

  Air Quality AQ Index Pollutant
Not available.

Snow Depth

Station Depth Elevation

Earthquake Activity

City Distance Mag. Time & Date
Minimum magnitude displayed is 2.5.

Coastal Water Temperatures

Place Temperature

Nearby Weather Stations